sensor_id;sensor_type;location;lat;lon;timestamp;temperature;humidity
22288;DHT22;11312;51.464;6.968;2023-11-21T00:01:40;8.20;99.90
22288;DHT22;11312;51.464;6.968;2023-11-21T00:04:05;8.20;99.90
22288;DHT22;11312;51.464;6.968;2023-11-21T00:06:33;8.20;99.90
22288;DHT22;11312;51.464;6.968;2023-11-21T00:08:59;8.20;99.90
22288;DHT22;11312;51.464;6.968;2023-11-21T00:11:25;8.30;99.90
22288;DHT22;11312;51.464;6.968;2023-11-21T00:13:51;8.30;99.90
22288;DHT22;11312;51.464;6.968;2023-11-21T00:16:17;8.20;99.90
22288;DHT22;11312;51.464;6.968;2023-11-21T00:18:42;8.20;99.90
22288;DHT22;11312;51.464;6.968;2023-11-21T00:21:08;8.30;99.90
22288;DHT22;11312;51.464;6.968;2023-11-21T00:23:34;8.30;99.90
22288;DHT22;11312;51.464;6.968;2023-11-21T00:26:00;8.30;99.90
22288;DHT22;11312;51.464;6.968;2023-11-21T00:28:26;8.40;99.90
22288;DHT22;11312;51.464;6.968;2023-11-21T00:30:52;8.30;99.90
22288;DHT22;11312;51.464;6.968;2023-11-21T00:33:17;8.30;99.90
22288;DHT22;11312;51.464;6.968;2023-11-21T00:35:43;8.40;99.90
22288;DHT22;11312;51.464;6.968;2023-11-21T00:38:08;8.30;99.90
22288;DHT22;11312;51.464;6.968;2023-11-21T00:40:34;8.40;99.90
22288;DHT22;11312;51.464;6.968;2023-11-21T00:43:00;8.40;99.90
22288;DHT22;11312;51.464;6.968;2023-11-21T00:45:26;8.40;99.90
22288;DHT22;11312;51.464;6.968;2023-11-21T00:47:52;8.40;99.90
22288;DHT22;11312;51.464;6.968;2023-11-21T00:50:17;8.40;99.90
22288;DHT22;11312;51.464;6.968;2023-11-21T00:52:43;8.50;99.90
22288;DHT22;11312;51.464;6.968;2023-11-21T00:55:09;8.50;99.90
22288;DHT22;11312;51.464;6.968;2023-11-21T00:57:35;8.50;99.90
22288;DHT22;11312;51.464;6.968;2023-11-21T01:00:01;8.50;99.90
22288;DHT22;11312;51.464;6.968;2023-11-21T01:02:27;8.50;99.90
22288;DHT22;11312;51.464;6.968;2023-11-21T01:04:52;8.50;99.90
22288;DHT22;11312;51.464;6.968;2023-11-21T01:07:18;8.60;99.90
22288;DHT22;11312;51.464;6.968;2023-11-21T01:09:46;8.60;99.90
22288;DHT22;11312;51.464;6.968;2023-11-21T01:12:11;8.60;99.90
22288;DHT22;11312;51.464;6.968;2023-11-21T01:14:37;8.60;99.90
22288;DHT22;11312;51.464;6.968;2023-11-21T01:17:02;8.60;99.90
22288;DHT22;11312;51.464;6.968;2023-11-21T01:19:30;8.60;99.90
22288;DHT22;11312;51.464;6.968;2023-11-21T01:21:55;8.60;99.90
22288;DHT22;11312;51.464;6.968;2023-11-21T01:24:23;8.60;99.90
22288;DHT22;11312;51.464;6.968;2023-11-21T01:26:49;8.60;99.90
22288;DHT22;11312;51.464;6.968;2023-11-21T01:29:14;8.60;99.90
22288;DHT22;11312;51.464;6.968;2023-11-21T01:31:40;8.60;99.90
22288;DHT22;11312;51.464;6.968;2023-11-21T01:34:06;8.60;99.90
22288;DHT22;11312;51.464;6.968;2023-11-21T01:36:32;8.60;99.90
22288;DHT22;11312;51.464;6.968;2023-11-21T01:38:59;8.60;99.90
22288;DHT22;11312;51.464;6.968;2023-11-21T01:41:26;8.60;99.90
22288;DHT22;11312;51.464;6.968;2023-11-21T01:43:52;8.60;99.90
22288;DHT22;11312;51.464;6.968;2023-11-21T01:46:19;8.70;99.90
22288;DHT22;11312;51.464;6.968;2023-11-21T01:48:46;8.60;99.90
22288;DHT22;11312;51.464;6.968;2023-11-21T01:51:13;8.70;99.90
22288;DHT22;11312;51.464;6.968;2023-11-21T01:53:39;8.60;99.90
22288;DHT22;11312;51.464;6.968;2023-11-21T01:56:06;8.70;99.90
22288;DHT22;11312;51.464;6.968;2023-11-21T01:58:33;8.70;99.90
22288;DHT22;11312;51.464;6.968;2023-11-21T02:00:59;8.70;99.90
22288;DHT22;11312;51.464;6.968;2023-11-21T02:03:25;8.70;99.90
22288;DHT22;11312;51.464;6.968;2023-11-21T02:05:52;8.70;99.90
22288;DHT22;11312;51.464;6.968;2023-11-21T02:08:19;8.70;99.90
22288;DHT22;11312;51.464;6.968;2023-11-21T02:10:45;8.70;99.90
22288;DHT22;11312;51.464;6.968;2023-11-21T02:13:11;8.70;99.90
22288;DHT22;11312;51.464;6.968;2023-11-21T02:15:37;8.70;99.90
22288;DHT22;11312;51.464;6.968;2023-11-21T02:18:04;8.70;99.90
22288;DHT22;11312;51.464;6.968;2023-11-21T02:20:31;8.70;99.90
22288;DHT22;11312;51.464;6.968;2023-11-21T02:23:00;8.70;99.90
22288;DHT22;11312;51.464;6.968;2023-11-21T02:25:28;8.70;99.90
22288;DHT22;11312;51.464;6.968;2023-11-21T02:27:55;8.70;99.90
22288;DHT22;11312;51.464;6.968;2023-11-21T02:30:24;8.70;99.90
22288;DHT22;11312;51.464;6.968;2023-11-21T02:32:59;8.70;99.90
22288;DHT22;11312;51.464;6.968;2023-11-21T02:35:25;8.80;99.90
22288;DHT22;11312;51.464;6.968;2023-11-21T02:37:54;8.50;99.90
22288;DHT22;11312;51.464;6.968;2023-11-21T02:40:20;8.50;99.90
22288;DHT22;11312;51.464;6.968;2023-11-21T02:42:49;8.60;99.90
22288;DHT22;11312;51.464;6.968;2023-11-21T02:45:19;8.60;99.90
22288;DHT22;11312;51.464;6.968;2023-11-21T02:47:46;8.70;99.90
22288;DHT22;11312;51.464;6.968;2023-11-21T02:50:12;8.80;99.90
22288;DHT22;11312;51.464;6.968;2023-11-21T02:52:38;8.70;99.90
22288;DHT22;11312;51.464;6.968;2023-11-21T02:55:05;8.70;99.90
22288;DHT22;11312;51.464;6.968;2023-11-21T02:57:32;8.80;99.90
22288;DHT22;11312;51.464;6.968;2023-11-21T02:59:59;8.80;99.90
22288;DHT22;11312;51.464;6.968;2023-11-21T03:02:25;8.80;99.90
22288;DHT22;11312;51.464;6.968;2023-11-21T03:04:51;8.80;99.90
22288;DHT22;11312;51.464;6.968;2023-11-21T03:07:17;8.80;99.90
22288;DHT22;11312;51.464;6.968;2023-11-21T03:09:45;8.80;99.90
22288;DHT22;11312;51.464;6.968;2023-11-21T03:12:11;8.80;99.90
22288;DHT22;11312;51.464;6.968;2023-11-21T03:14:41;8.80;99.90
22288;DHT22;11312;51.464;6.968;2023-11-21T03:17:07;8.80;99.90
22288;DHT22;11312;51.464;6.968;2023-11-21T03:19:32;8.80;99.90
22288;DHT22;11312;51.464;6.968;2023-11-21T03:21:58;8.80;99.90
22288;DHT22;11312;51.464;6.968;2023-11-21T03:24:24;8.80;99.90
22288;DHT22;11312;51.464;6.968;2023-11-21T03:26:50;8.80;99.90
22288;DHT22;11312;51.464;6.968;2023-11-21T03:29:16;8.80;99.90
22288;DHT22;11312;51.464;6.968;2023-11-21T03:31:41;8.80;99.90
22288;DHT22;11312;51.464;6.968;2023-11-21T03:34:14;8.80;99.90
22288;DHT22;11312;51.464;6.968;2023-11-21T03:36:39;8.80;99.90
22288;DHT22;11312;51.464;6.968;2023-11-21T03:39:05;8.70;99.90
22288;DHT22;11312;51.464;6.968;2023-11-21T03:41:30;8.70;99.90
22288;DHT22;11312;51.464;6.968;2023-11-21T03:43:56;8.80;99.90
22288;DHT22;11312;51.464;6.968;2023-11-21T03:46:22;8.80;99.90
22288;DHT22;11312;51.464;6.968;2023-11-21T03:48:47;8.80;99.90
22288;DHT22;11312;51.464;6.968;2023-11-21T03:51:13;8.70;99.90
22288;DHT22;11312;51.464;6.968;2023-11-21T03:53:39;8.80;99.90
22288;DHT22;11312;51.464;6.968;2023-11-21T03:56:05;8.80;99.90
22288;DHT22;11312;51.464;6.968;2023-11-21T03:58:30;8.80;99.90
22288;DHT22;11312;51.464;6.968;2023-11-21T04:00:56;8.80;99.90
22288;DHT22;11312;51.464;6.968;2023-11-21T04:03:22;8.80;99.90
22288;DHT22;11312;51.464;6.968;2023-11-21T04:05:47;8.90;99.90
22288;DHT22;11312;51.464;6.968;2023-11-21T04:08:13;8.80;99.90
22288;DHT22;11312;51.464;6.968;2023-11-21T04:10:38;8.70;99.90
22288;DHT22;11312;51.464;6.968;2023-11-21T04:13:05;8.80;99.90
22288;DHT22;11312;51.464;6.968;2023-11-21T04:15:32;8.80;99.90
22288;DHT22;11312;51.464;6.968;2023-11-21T04:17:57;8.80;99.90
22288;DHT22;11312;51.464;6.968;2023-11-21T04:20:24;8.80;99.90
22288;DHT22;11312;51.464;6.968;2023-11-21T04:22:50;8.80;99.90
22288;DHT22;11312;51.464;6.968;2023-11-21T04:25:16;8.70;99.90
22288;DHT22;11312;51.464;6.968;2023-11-21T04:27:43;8.80;99.90
22288;DHT22;11312;51.464;6.968;2023-11-21T04:30:10;8.70;99.90
22288;DHT22;11312;51.464;6.968;2023-11-21T04:32:36;8.70;99.90
22288;DHT22;11312;51.464;6.968;2023-11-21T04:35:01;8.80;99.90
22288;DHT22;11312;51.464;6.968;2023-11-21T04:37:27;8.80;99.90
22288;DHT22;11312;51.464;6.968;2023-11-21T04:39:53;8.80;99.90
22288;DHT22;11312;51.464;6.968;2023-11-21T04:42:18;8.80;99.90
22288;DHT22;11312;51.464;6.968;2023-11-21T04:44:44;8.80;99.90
22288;DHT22;11312;51.464;6.968;2023-11-21T04:47:10;8.80;99.90
22288;DHT22;11312;51.464;6.968;2023-11-21T04:49:35;8.80;99.90
22288;DHT22;11312;51.464;6.968;2023-11-21T04:52:01;8.80;99.90
22288;DHT22;11312;51.464;6.968;2023-11-21T04:54:30;8.90;99.90
22288;DHT22;11312;51.464;6.968;2023-11-21T04:56:56;8.90;99.90
22288;DHT22;11312;51.464;6.968;2023-11-21T04:59:22;8.90;99.90
22288;DHT22;11312;51.464;6.968;2023-11-21T05:01:50;8.90;99.90
22288;DHT22;11312;51.464;6.968;2023-11-21T05:04:16;8.90;99.90
22288;DHT22;11312;51.464;6.968;2023-11-21T05:06:41;8.90;99.90
22288;DHT22;11312;51.464;6.968;2023-11-21T05:09:07;8.90;99.90
22288;DHT22;11312;51.464;6.968;2023-11-21T05:11:37;8.90;99.90
22288;DHT22;11312;51.464;6.968;2023-11-21T05:14:03;8.90;99.90
22288;DHT22;11312;51.464;6.968;2023-11-21T05:16:30;8.90;99.90
22288;DHT22;11312;51.464;6.968;2023-11-21T05:18:56;8.90;99.90
22288;DHT22;11312;51.464;6.968;2023-11-21T05:21:26;8.90;99.90
22288;DHT22;11312;51.464;6.968;2023-11-21T05:23:52;8.90;99.90
22288;DHT22;11312;51.464;6.968;2023-11-21T05:26:18;8.90;99.90
22288;DHT22;11312;51.464;6.968;2023-11-21T05:28:43;8.90;99.90
22288;DHT22;11312;51.464;6.968;2023-11-21T05:31:09;8.80;99.90
22288;DHT22;11312;51.464;6.968;2023-11-21T05:33:36;8.80;99.90
22288;DHT22;11312;51.464;6.968;2023-11-21T05:36:02;8.80;99.90
22288;DHT22;11312;51.464;6.968;2023-11-21T05:38:28;8.80;99.90
22288;DHT22;11312;51.464;6.968;2023-11-21T05:40:53;8.80;99.90
22288;DHT22;11312;51.464;6.968;2023-11-21T05:43:19;8.80;99.90
22288;DHT22;11312;51.464;6.968;2023-11-21T05:45:45;8.80;99.90
22288;DHT22;11312;51.464;6.968;2023-11-21T05:48:11;8.80;99.90
22288;DHT22;11312;51.464;6.968;2023-11-21T05:50:36;8.80;99.90
22288;DHT22;11312;51.464;6.968;2023-11-21T05:53:03;8.70;99.90
22288;DHT22;11312;51.464;6.968;2023-11-21T05:55:29;8.70;99.90
22288;DHT22;11312;51.464;6.968;2023-11-21T05:57:55;8.70;99.90
22288;DHT22;11312;51.464;6.968;2023-11-21T06:00:20;8.80;99.90
22288;DHT22;11312;51.464;6.968;2023-11-21T06:02:51;8.70;99.90
22288;DHT22;11312;51.464;6.968;2023-11-21T06:05:19;8.70;99.90
22288;DHT22;11312;51.464;6.968;2023-11-21T06:07:45;8.70;99.90
22288;DHT22;11312;51.464;6.968;2023-11-21T06:10:11;8.70;99.90
22288;DHT22;11312;51.464;6.968;2023-11-21T06:12:39;8.70;99.90
22288;DHT22;11312;51.464;6.968;2023-11-21T06:15:09;8.70;99.90
22288;DHT22;11312;51.464;6.968;2023-11-21T06:17:35;8.70;99.90
22288;DHT22;11312;51.464;6.968;2023-11-21T06:20:06;8.70;99.90
22288;DHT22;11312;51.464;6.968;2023-11-21T06:22:45;8.70;99.90
22288;DHT22;11312;51.464;6.968;2023-11-21T06:25:13;8.70;99.90
22288;DHT22;11312;51.464;6.968;2023-11-21T06:27:41;8.70;99.90
22288;DHT22;11312;51.464;6.968;2023-11-21T06:30:07;8.70;99.90
22288;DHT22;11312;51.464;6.968;2023-11-21T06:32:35;8.70;99.90
22288;DHT22;11312;51.464;6.968;2023-11-21T06:35:01;8.70;99.90
22288;DHT22;11312;51.464;6.968;2023-11-21T06:37:28;8.70;99.90
22288;DHT22;11312;51.464;6.968;2023-11-21T06:39:54;8.70;99.90
22288;DHT22;11312;51.464;6.968;2023-11-21T06:42:20;8.70;99.90
22288;DHT22;11312;51.464;6.968;2023-11-21T06:44:46;8.70;99.90
22288;DHT22;11312;51.464;6.968;2023-11-21T06:47:13;8.70;99.90
22288;DHT22;11312;51.464;6.968;2023-11-21T06:49:39;8.80;99.90
22288;DHT22;11312;51.464;6.968;2023-11-21T06:52:05;8.80;99.90
22288;DHT22;11312;51.464;6.968;2023-11-21T06:54:31;8.80;99.90
22288;DHT22;11312;51.464;6.968;2023-11-21T06:56:57;8.80;99.90
22288;DHT22;11312;51.464;6.968;2023-11-21T06:59:23;8.90;99.90
22288;DHT22;11312;51.464;6.968;2023-11-21T07:01:49;8.80;99.90
22288;DHT22;11312;51.464;6.968;2023-11-21T07:04:15;8.80;99.90
22288;DHT22;11312;51.464;6.968;2023-11-21T07:06:40;8.80;99.90
22288;DHT22;11312;51.464;6.968;2023-11-21T07:09:07;8.90;99.90
22288;DHT22;11312;51.464;6.968;2023-11-21T07:11:34;8.90;99.90
22288;DHT22;11312;51.464;6.968;2023-11-21T07:14:00;8.90;99.90
22288;DHT22;11312;51.464;6.968;2023-11-21T07:16:34;8.90;99.90
22288;DHT22;11312;51.464;6.968;2023-11-21T07:19:03;9.00;99.90
22288;DHT22;11312;51.464;6.968;2023-11-21T07:21:32;8.90;99.90
22288;DHT22;11312;51.464;6.968;2023-11-21T07:23:58;9.00;99.90
22288;DHT22;11312;51.464;6.968;2023-11-21T07:26:24;9.10;99.90
22288;DHT22;11312;51.464;6.968;2023-11-21T07:28:51;9.00;99.90
22288;DHT22;11312;51.464;6.968;2023-11-21T07:31:16;9.10;99.90
22288;DHT22;11312;51.464;6.968;2023-11-21T07:33:42;9.00;99.90
22288;DHT22;11312;51.464;6.968;2023-11-21T07:36:08;9.10;99.90
22288;DHT22;11312;51.464;6.968;2023-11-21T07:38:33;8.90;99.90
22288;DHT22;11312;51.464;6.968;2023-11-21T07:40:59;8.90;99.90
22288;DHT22;11312;51.464;6.968;2023-11-21T07:43:26;8.70;99.90
22288;DHT22;11312;51.464;6.968;2023-11-21T07:45:52;8.90;99.90
22288;DHT22;11312;51.464;6.968;2023-11-21T07:48:17;9.00;99.90
22288;DHT22;11312;51.464;6.968;2023-11-21T07:50:43;8.70;99.90
22288;DHT22;11312;51.464;6.968;2023-11-21T07:53:09;8.90;99.90
22288;DHT22;11312;51.464;6.968;2023-11-21T07:55:34;9.10;99.90
22288;DHT22;11312;51.464;6.968;2023-11-21T07:58:01;9.10;99.90
22288;DHT22;11312;51.464;6.968;2023-11-21T08:00:27;8.90;99.90
22288;DHT22;11312;51.464;6.968;2023-11-21T08:02:55;8.80;99.90
22288;DHT22;11312;51.464;6.968;2023-11-21T08:05:21;9.00;99.90
22288;DHT22;11312;51.464;6.968;2023-11-21T08:07:46;9.30;99.90
22288;DHT22;11312;51.464;6.968;2023-11-21T08:10:12;9.30;99.90
22288;DHT22;11312;51.464;6.968;2023-11-21T08:12:38;9.30;99.90
22288;DHT22;11312;51.464;6.968;2023-11-21T08:15:04;9.30;99.90
22288;DHT22;11312;51.464;6.968;2023-11-21T08:17:31;9.20;99.90
22288;DHT22;11312;51.464;6.968;2023-11-21T08:19:58;9.30;99.90
22288;DHT22;11312;51.464;6.968;2023-11-21T08:22:24;9.30;99.90
22288;DHT22;11312;51.464;6.968;2023-11-21T08:24:50;9.40;99.90
22288;DHT22;11312;51.464;6.968;2023-11-21T08:27:16;9.40;99.90
22288;DHT22;11312;51.464;6.968;2023-11-21T08:29:42;9.30;99.90
22288;DHT22;11312;51.464;6.968;2023-11-21T08:32:08;9.40;99.90
22288;DHT22;11312;51.464;6.968;2023-11-21T08:34:33;10.80;99.90
22288;DHT22;11312;51.464;6.968;2023-11-21T08:36:59;12.40;99.90
22288;DHT22;11312;51.464;6.968;2023-11-21T08:39:25;13.50;99.90
22288;DHT22;11312;51.464;6.968;2023-11-21T08:41:52;14.30;99.90
22288;DHT22;11312;51.464;6.968;2023-11-21T08:44:17;14.90;99.90
22288;DHT22;11312;51.464;6.968;2023-11-21T08:46:46;15.10;99.90
22288;DHT22;11312;51.464;6.968;2023-11-21T08:49:19;14.90;99.90
22288;DHT22;11312;51.464;6.968;2023-11-21T08:51:45;14.20;99.90
22288;DHT22;11312;51.464;6.968;2023-11-21T08:54:11;13.10;99.90
22288;DHT22;11312;51.464;6.968;2023-11-21T08:56:37;12.40;99.90
22288;DHT22;11312;51.464;6.968;2023-11-21T08:59:03;12.00;99.90
22288;DHT22;11312;51.464;6.968;2023-11-21T09:01:29;11.60;99.90
22288;DHT22;11312;51.464;6.968;2023-11-21T09:03:57;11.40;99.90
22288;DHT22;11312;51.464;6.968;2023-11-21T09:06:23;11.00;99.90
22288;DHT22;11312;51.464;6.968;2023-11-21T09:08:50;10.80;99.90
22288;DHT22;11312;51.464;6.968;2023-11-21T09:11:16;10.00;99.90
22288;DHT22;11312;51.464;6.968;2023-11-21T09:13:42;10.00;99.90
22288;DHT22;11312;51.464;6.968;2023-11-21T09:16:08;9.70;99.90
22288;DHT22;11312;51.464;6.968;2023-11-21T09:18:33;9.90;99.90
22288;DHT22;11312;51.464;6.968;2023-11-21T09:21:00;10.20;99.90
22288;DHT22;11312;51.464;6.968;2023-11-21T09:23:26;10.20;99.90
22288;DHT22;11312;51.464;6.968;2023-11-21T09:25:52;10.00;99.90
22288;DHT22;11312;51.464;6.968;2023-11-21T09:28:19;10.10;99.90
22288;DHT22;11312;51.464;6.968;2023-11-21T09:30:45;10.30;99.90
22288;DHT22;11312;51.464;6.968;2023-11-21T09:33:11;10.20;99.90
22288;DHT22;11312;51.464;6.968;2023-11-21T09:35:39;10.20;99.90
22288;DHT22;11312;51.464;6.968;2023-11-21T09:38:05;10.20;99.90
22288;DHT22;11312;51.464;6.968;2023-11-21T09:40:37;10.10;99.90
22288;DHT22;11312;51.464;6.968;2023-11-21T09:43:08;10.00;99.90
22288;DHT22;11312;51.464;6.968;2023-11-21T09:45:39;10.10;99.90
22288;DHT22;11312;51.464;6.968;2023-11-21T09:48:07;10.20;99.90
22288;DHT22;11312;51.464;6.968;2023-11-21T09:50:33;10.20;99.90
22288;DHT22;11312;51.464;6.968;2023-11-21T09:53:13;10.20;99.90
22288;DHT22;11312;51.464;6.968;2023-11-21T09:55:46;10.10;99.90
22288;DHT22;11312;51.464;6.968;2023-11-21T09:58:13;10.20;99.90
22288;DHT22;11312;51.464;6.968;2023-11-21T10:00:47;10.20;99.90
22288;DHT22;11312;51.464;6.968;2023-11-21T10:03:13;10.20;99.90
22288;DHT22;11312;51.464;6.968;2023-11-21T10:05:43;10.20;99.90
22288;DHT22;11312;51.464;6.968;2023-11-21T10:08:10;10.10;99.90
22288;DHT22;11312;51.464;6.968;2023-11-21T10:10:37;10.10;99.90
22288;DHT22;11312;51.464;6.968;2023-11-21T10:13:05;10.10;99.90
22288;DHT22;11312;51.464;6.968;2023-11-21T10:15:34;10.00;99.90
22288;DHT22;11312;51.464;6.968;2023-11-21T10:18:05;10.00;99.90
22288;DHT22;11312;51.464;6.968;2023-11-21T10:20:32;10.00;99.90
22288;DHT22;11312;51.464;6.968;2023-11-21T10:23:03;10.20;99.90
22288;DHT22;11312;51.464;6.968;2023-11-21T10:25:30;10.20;99.90
22288;DHT22;11312;51.464;6.968;2023-11-21T10:28:02;10.40;99.90
22288;DHT22;11312;51.464;6.968;2023-11-21T10:30:38;10.40;99.90
22288;DHT22;11312;51.464;6.968;2023-11-21T10:33:05;10.70;99.90
22288;DHT22;11312;51.464;6.968;2023-11-21T10:35:43;10.70;99.90
22288;DHT22;11312;51.464;6.968;2023-11-21T10:38:13;10.90;99.90
22288;DHT22;11312;51.464;6.968;2023-11-21T10:40:43;10.90;99.90
22288;DHT22;11312;51.464;6.968;2023-11-21T10:43:11;10.90;99.90
22288;DHT22;11312;51.464;6.968;2023-11-21T10:45:38;10.90;99.90
22288;DHT22;11312;51.464;6.968;2023-11-21T10:48:09;10.80;99.90
22288;DHT22;11312;51.464;6.968;2023-11-21T10:50:36;10.60;99.90
22288;DHT22;11312;51.464;6.968;2023-11-21T10:53:05;10.80;99.90
22288;DHT22;11312;51.464;6.968;2023-11-21T10:55:32;10.90;99.90
22288;DHT22;11312;51.464;6.968;2023-11-21T10:58:02;10.90;99.90
22288;DHT22;11312;51.464;6.968;2023-11-21T11:00:34;10.80;99.90
22288;DHT22;11312;51.464;6.968;2023-11-21T11:03:00;10.80;99.90
22288;DHT22;11312;51.464;6.968;2023-11-21T11:05:27;10.90;99.90
22288;DHT22;11312;51.464;6.968;2023-11-21T11:08:06;10.90;99.90
22288;DHT22;11312;51.464;6.968;2023-11-21T11:10:33;11.00;99.90
22288;DHT22;11312;51.464;6.968;2023-11-21T11:13:00;11.00;99.90
22288;DHT22;11312;51.464;6.968;2023-11-21T11:15:27;10.90;99.90
22288;DHT22;11312;51.464;6.968;2023-11-21T11:17:53;10.90;99.90
22288;DHT22;11312;51.464;6.968;2023-11-21T11:20:32;10.90;99.90
22288;DHT22;11312;51.464;6.968;2023-11-21T11:28:47;11.10;99.90
22288;DHT22;11312;51.464;6.968;2023-11-21T11:34:29;11.30;99.90
22288;DHT22;11312;51.464;6.968;2023-11-21T11:37:06;11.30;99.90
22288;DHT22;11312;51.464;6.968;2023-11-21T11:39:39;11.00;99.90
22288;DHT22;11312;51.464;6.968;2023-11-21T11:42:15;11.10;99.90
22288;DHT22;11312;51.464;6.968;2023-11-21T11:47:15;11.00;99.90
22288;DHT22;11312;51.464;6.968;2023-11-21T11:50:04;11.00;99.90
22288;DHT22;11312;51.464;6.968;2023-11-21T11:52:43;10.90;99.90
22288;DHT22;11312;51.464;6.968;2023-11-21T11:55:13;10.90;99.90
22288;DHT22;11312;51.464;6.968;2023-11-21T11:57:41;11.00;99.90
22288;DHT22;11312;51.464;6.968;2023-11-21T12:00:14;11.00;99.90
22288;DHT22;11312;51.464;6.968;2023-11-21T12:02:49;11.10;99.90
22288;DHT22;11312;51.464;6.968;2023-11-21T12:05:17;11.20;99.90
22288;DHT22;11312;51.464;6.968;2023-11-21T12:07:51;11.20;99.90
22288;DHT22;11312;51.464;6.968;2023-11-21T12:10:22;11.20;99.90
22288;DHT22;11312;51.464;6.968;2023-11-21T12:13:00;11.20;99.90
22288;DHT22;11312;51.464;6.968;2023-11-21T12:15:27;11.00;99.90
22288;DHT22;11312;51.464;6.968;2023-11-21T12:17:56;11.00;99.90
22288;DHT22;11312;51.464;6.968;2023-11-21T12:20:23;10.90;99.90
22288;DHT22;11312;51.464;6.968;2023-11-21T12:22:54;11.00;99.90
22288;DHT22;11312;51.464;6.968;2023-11-21T12:25:24;10.90;99.90
22288;DHT22;11312;51.464;6.968;2023-11-21T12:27:54;11.00;99.90
22288;DHT22;11312;51.464;6.968;2023-11-21T12:30:22;10.90;99.90
22288;DHT22;11312;51.464;6.968;2023-11-21T12:32:49;10.90;99.90
22288;DHT22;11312;51.464;6.968;2023-11-21T12:35:17;10.80;99.90
22288;DHT22;11312;51.464;6.968;2023-11-21T12:37:45;10.70;99.90
22288;DHT22;11312;51.464;6.968;2023-11-21T12:40:11;10.60;99.90
22288;DHT22;11312;51.464;6.968;2023-11-21T12:42:41;10.60;99.90
22288;DHT22;11312;51.464;6.968;2023-11-21T12:47:43;10.60;99.90
22288;DHT22;11312;51.464;6.968;2023-11-21T12:50:10;10.50;99.90
22288;DHT22;11312;51.464;6.968;2023-11-21T12:52:42;10.50;99.90
22288;DHT22;11312;51.464;6.968;2023-11-21T12:55:14;10.50;99.90
22288;DHT22;11312;51.464;6.968;2023-11-21T12:57:42;10.50;99.90
22288;DHT22;11312;51.464;6.968;2023-11-21T13:00:09;10.40;99.90
22288;DHT22;11312;51.464;6.968;2023-11-21T13:02:51;10.40;99.90
22288;DHT22;11312;51.464;6.968;2023-11-21T13:05:36;10.40;99.90
22288;DHT22;11312;51.464;6.968;2023-11-21T13:08:07;10.40;99.90
22288;DHT22;11312;51.464;6.968;2023-11-21T13:10:35;10.40;99.90
22288;DHT22;11312;51.464;6.968;2023-11-21T13:13:06;10.40;99.90
22288;DHT22;11312;51.464;6.968;2023-11-21T13:15:34;10.40;99.90
22288;DHT22;11312;51.464;6.968;2023-11-21T13:18:02;10.40;99.90
22288;DHT22;11312;51.464;6.968;2023-11-21T13:20:28;11.50;99.90
22288;DHT22;11312;51.464;6.968;2023-11-21T13:22:58;13.10;99.90
22288;DHT22;11312;51.464;6.968;2023-11-21T13:25:25;13.60;99.90
22288;DHT22;11312;51.464;6.968;2023-11-21T13:27:57;14.50;99.90
22288;DHT22;11312;51.464;6.968;2023-11-21T13:30:24;15.00;99.90
22288;DHT22;11312;51.464;6.968;2023-11-21T13:33:05;14.20;99.90
22288;DHT22;11312;51.464;6.968;2023-11-21T13:35:33;13.10;99.90
22288;DHT22;11312;51.464;6.968;2023-11-21T13:38:09;12.50;99.90
22288;DHT22;11312;51.464;6.968;2023-11-21T13:40:36;12.10;99.90
22288;DHT22;11312;51.464;6.968;2023-11-21T13:43:11;11.80;99.90
22288;DHT22;11312;51.464;6.968;2023-11-21T13:45:38;11.50;99.90
22288;DHT22;11312;51.464;6.968;2023-11-21T13:48:08;11.40;99.90
22288;DHT22;11312;51.464;6.968;2023-11-21T13:50:42;11.20;99.90
22288;DHT22;11312;51.464;6.968;2023-11-21T13:53:23;11.10;99.90
22288;DHT22;11312;51.464;6.968;2023-11-21T13:55:53;11.00;99.90
22288;DHT22;11312;51.464;6.968;2023-11-21T13:58:20;11.00;99.90
22288;DHT22;11312;51.464;6.968;2023-11-21T14:00:58;10.90;99.90
22288;DHT22;11312;51.464;6.968;2023-11-21T14:03:24;10.90;99.90
22288;DHT22;11312;51.464;6.968;2023-11-21T14:05:58;10.80;99.90
22288;DHT22;11312;51.464;6.968;2023-11-21T14:08:26;10.60;99.90
22288;DHT22;11312;51.464;6.968;2023-11-21T14:10:54;10.80;99.90
22288;DHT22;11312;51.464;6.968;2023-11-21T14:13:25;10.80;99.90
22288;DHT22;11312;51.464;6.968;2023-11-21T14:15:51;10.80;99.90
22288;DHT22;11312;51.464;6.968;2023-11-21T14:18:23;10.70;99.90
22288;DHT22;11312;51.464;6.968;2023-11-21T14:20:58;10.70;99.90
22288;DHT22;11312;51.464;6.968;2023-11-21T14:23:23;10.60;99.90
22288;DHT22;11312;51.464;6.968;2023-11-21T14:25:49;10.60;99.90
22288;DHT22;11312;51.464;6.968;2023-11-21T14:28:16;10.70;99.90
22288;DHT22;11312;51.464;6.968;2023-11-21T14:30:42;10.60;99.90
22288;DHT22;11312;51.464;6.968;2023-11-21T14:33:08;10.60;99.90
22288;DHT22;11312;51.464;6.968;2023-11-21T14:35:35;10.60;99.90
22288;DHT22;11312;51.464;6.968;2023-11-21T14:38:02;10.50;99.90
22288;DHT22;11312;51.464;6.968;2023-11-21T14:40:31;10.50;99.90
22288;DHT22;11312;51.464;6.968;2023-11-21T14:43:00;10.40;99.90
22288;DHT22;11312;51.464;6.968;2023-11-21T14:45:25;10.40;99.90
22288;DHT22;11312;51.464;6.968;2023-11-21T14:47:52;10.40;99.90
22288;DHT22;11312;51.464;6.968;2023-11-21T14:50:30;10.40;99.90
22288;DHT22;11312;51.464;6.968;2023-11-21T14:53:15;10.40;99.90
22288;DHT22;11312;51.464;6.968;2023-11-21T14:55:41;10.50;99.90
22288;DHT22;11312;51.464;6.968;2023-11-21T14:58:06;10.30;99.90
22288;DHT22;11312;51.464;6.968;2023-11-21T15:00:37;10.40;99.90
22288;DHT22;11312;51.464;6.968;2023-11-21T15:03:10;10.40;99.90
22288;DHT22;11312;51.464;6.968;2023-11-21T15:05:36;10.40;99.90
22288;DHT22;11312;51.464;6.968;2023-11-21T15:08:04;10.20;99.90
22288;DHT22;11312;51.464;6.968;2023-11-21T15:10:55;10.30;99.90
22288;DHT22;11312;51.464;6.968;2023-11-21T15:13:21;10.20;99.90
22288;DHT22;11312;51.464;6.968;2023-11-21T15:15:52;10.20;99.90
22288;DHT22;11312;51.464;6.968;2023-11-21T15:18:20;10.00;99.90
22288;DHT22;11312;51.464;6.968;2023-11-21T15:20:46;10.00;99.90
22288;DHT22;11312;51.464;6.968;2023-11-21T15:23:12;10.00;99.90
22288;DHT22;11312;51.464;6.968;2023-11-21T15:25:43;9.80;99.90
22288;DHT22;11312;51.464;6.968;2023-11-21T15:28:10;9.80;99.90
22288;DHT22;11312;51.464;6.968;2023-11-21T15:30:36;9.80;99.90
22288;DHT22;11312;51.464;6.968;2023-11-21T15:33:02;9.80;99.90
22288;DHT22;11312;51.464;6.968;2023-11-21T15:35:29;9.80;99.90
22288;DHT22;11312;51.464;6.968;2023-11-21T15:37:55;9.80;99.90
22288;DHT22;11312;51.464;6.968;2023-11-21T15:40:24;9.80;99.90
22288;DHT22;11312;51.464;6.968;2023-11-21T15:42:50;9.80;99.90
22288;DHT22;11312;51.464;6.968;2023-11-21T15:45:16;9.60;99.90
22288;DHT22;11312;51.464;6.968;2023-11-21T15:47:44;9.50;99.90
22288;DHT22;11312;51.464;6.968;2023-11-21T15:50:11;9.70;99.90
22288;DHT22;11312;51.464;6.968;2023-11-21T15:52:37;9.60;99.90
22288;DHT22;11312;51.464;6.968;2023-11-21T15:55:03;9.70;99.90
22288;DHT22;11312;51.464;6.968;2023-11-21T15:57:29;9.60;99.90